sensor_id;sensor_type;location;lat;lon;timestamp;P1;durP1;ratioP1;P2;durP2;ratioP2
54983;SDS011;40884;53.562;9.940;2022-09-21T05:39:26;10.23;;;7.97;;
54983;SDS011;40884;53.562;9.940;2022-09-21T05:40:27;10.07;;;7.70;;
54983;SDS011;40884;53.562;9.940;2022-09-21T05:41:27;9.87;;;8.70;;
54983;SDS011;40884;53.562;9.940;2022-09-21T05:42:27;9.70;;;8.80;;
54983;SDS011;40884;53.562;9.940;2022-09-21T05:43:27;9.73;;;8.73;;
54983;SDS011;40884;53.562;9.940;2022-09-21T05:44:28;9.63;;;8.73;;
54983;SDS011;40884;53.562;9.940;2022-09-21T05:45:28;9.27;;;8.37;;
54983;SDS011;40884;53.562;9.940;2022-09-21T05:48:06;11.20;;;9.23;;
54983;SDS011;40884;53.562;9.940;2022-09-21T05:49:18;12.80;;;9.63;;
54983;SDS011;40884;53.562;9.940;2022-09-21T05:51:28;12.60;;;10.00;;
54983;SDS011;40884;53.562;9.940;2022-09-21T05:52:33;11.53;;;9.53;;
54983;SDS011;40884;53.562;9.940;2022-09-21T05:53:44;10.50;;;9.40;;
54983;SDS011;40884;53.562;9.940;2022-09-21T05:54:50;10.73;;;9.53;;
54983;SDS011;40884;53.562;9.940;2022-09-21T05:55:58;13.70;;;10.33;;
54983;SDS011;40884;53.562;9.940;2022-09-21T05:57:07;11.87;;;9.50;;
54983;SDS011;40884;53.562;9.940;2022-09-21T05:58:15;12.10;;;10.13;;
54983;SDS011;40884;53.562;9.940;2022-09-21T05:59:38;10.85;;;9.45;;
54983;SDS011;40884;53.562;9.940;2022-09-21T06:00:44;13.33;;;9.43;;
54983;SDS011;40884;53.562;9.940;2022-09-21T06:01:56;10.00;;;9.00;;
54983;SDS011;40884;53.562;9.940;2022-09-21T06:03:03;10.40;;;9.40;;
54983;SDS011;40884;53.562;9.940;2022-09-21T06:04:09;10.60;;;9.50;;
54983;SDS011;40884;53.562;9.940;2022-09-21T06:05:10;11.10;;;9.97;;
54983;SDS011;40884;53.562;9.940;2022-09-21T06:06:11;10.93;;;9.50;;
54983;SDS011;40884;53.562;9.940;2022-09-21T06:07:11;11.17;;;10.07;;
54983;SDS011;40884;53.562;9.940;2022-09-21T06:08:11;12.23;;;10.93;;
54983;SDS011;40884;53.562;9.940;2022-09-21T06:09:11;11.40;;;9.97;;
54983;SDS011;40884;53.562;9.940;2022-09-21T06:10:12;11.63;;;10.43;;
54983;SDS011;40884;53.562;9.940;2022-09-21T06:11:12;11.20;;;10.00;;
54983;SDS011;40884;53.562;9.940;2022-09-21T06:12:12;10.83;;;9.73;;
54983;SDS011;40884;53.562;9.940;2022-09-21T06:13:16;11.10;;;9.20;;
54983;SDS011;40884;53.562;9.940;2022-09-21T06:14:16;11.10;;;10.00;;
54983;SDS011;40884;53.562;9.940;2022-09-21T06:15:16;10.17;;;9.17;;
54983;SDS011;40884;53.562;9.940;2022-09-21T06:16:16;10.03;;;9.03;;
54983;SDS011;40884;53.562;9.940;2022-09-21T06:17:16;11.13;;;9.87;;
54983;SDS011;40884;53.562;9.940;2022-09-21T06:18:16;11.43;;;10.23;;
54983;SDS011;40884;53.562;9.940;2022-09-21T06:19:17;11.93;;;10.73;;
54983;SDS011;40884;53.562;9.940;2022-09-21T06:20:17;10.73;;;9.63;;
54983;SDS011;40884;53.562;9.940;2022-09-21T06:21:17;10.83;;;9.73;;
54983;SDS011;40884;53.562;9.940;2022-09-21T06:22:17;11.37;;;10.17;;
54983;SDS011;40884;53.562;9.940;2022-09-21T06:23:17;11.50;;;10.30;;
54983;SDS011;40884;53.562;9.940;2022-09-21T06:24:17;10.90;;;9.70;;
54983;SDS011;40884;53.562;9.940;2022-09-21T06:25:17;10.73;;;9.37;;
54983;SDS011;40884;53.562;9.940;2022-09-21T06:26:18;10.10;;;9.10;;
54983;SDS011;40884;53.562;9.940;2022-09-21T06:27:18;10.73;;;9.63;;
54983;SDS011;40884;53.562;9.940;2022-09-21T06:28:18;10.80;;;9.80;;
54983;SDS011;40884;53.562;9.940;2022-09-21T06:29:18;10.87;;;9.77;;
54983;SDS011;40884;53.562;9.940;2022-09-21T06:30:18;11.10;;;9.90;;
54983;SDS011;40884;53.562;9.940;2022-09-21T06:31:19;11.53;;;9.83;;
54983;SDS011;40884;53.562;9.940;2022-09-21T06:32:19;11.30;;;10.20;;
54983;SDS011;40884;53.562;9.940;2022-09-21T06:33:19;12.97;;;11.00;;
54983;SDS011;40884;53.562;9.940;2022-09-21T06:34:19;12.70;;;10.67;;
54983;SDS011;40884;53.562;9.940;2022-09-21T06:35:20;13.03;;;10.90;;
54983;SDS011;40884;53.562;9.940;2022-09-21T06:36:20;12.10;;;10.57;;
54983;SDS011;40884;53.562;9.940;2022-09-21T06:37:20;11.87;;;10.57;;
54983;SDS011;40884;53.562;9.940;2022-09-21T06:38:20;11.03;;;9.93;;
54983;SDS011;40884;53.562;9.940;2022-09-21T06:39:20;12.50;;;11.20;;
54983;SDS011;40884;53.562;9.940;2022-09-21T06:40:20;12.83;;;11.53;;
54983;SDS011;40884;53.562;9.940;2022-09-21T06:41:20;12.50;;;11.13;;
54983;SDS011;40884;53.562;9.940;2022-09-21T06:42:21;12.37;;;11.03;;
54983;SDS011;40884;53.562;9.940;2022-09-21T06:43:21;12.27;;;10.93;;
54983;SDS011;40884;53.562;9.940;2022-09-21T06:44:21;13.07;;;11.77;;
54983;SDS011;40884;53.562;9.940;2022-09-21T06:45:21;12.37;;;11.07;;
54983;SDS011;40884;53.562;9.940;2022-09-21T06:46:21;12.77;;;11.10;;
54983;SDS011;40884;53.562;9.940;2022-09-21T06:47:21;14.13;;;11.43;;
54983;SDS011;40884;53.562;9.940;2022-09-21T06:48:21;13.03;;;11.17;;
54983;SDS011;40884;53.562;9.940;2022-09-21T06:49:22;12.90;;;11.40;;
54983;SDS011;40884;53.562;9.940;2022-09-21T06:50:22;14.13;;;11.13;;
54983;SDS011;40884;53.562;9.940;2022-09-21T06:51:22;11.40;;;9.97;;
54983;SDS011;40884;53.562;9.940;2022-09-21T06:52:22;13.00;;;11.70;;
54983;SDS011;40884;53.562;9.940;2022-09-21T06:53:22;12.17;;;10.90;;
54983;SDS011;40884;53.562;9.940;2022-09-21T06:54:22;13.23;;;10.40;;
54983;SDS011;40884;53.562;9.940;2022-09-21T06:55:22;13.33;;;11.53;;
54983;SDS011;40884;53.562;9.940;2022-09-21T06:56:23;11.87;;;10.60;;
54983;SDS011;40884;53.562;9.940;2022-09-21T06:57:23;14.07;;;11.03;;
54983;SDS011;40884;53.562;9.940;2022-09-21T06:58:23;12.80;;;10.73;;
54983;SDS011;40884;53.562;9.940;2022-09-21T06:59:23;12.63;;;11.33;;
54983;SDS011;40884;53.562;9.940;2022-09-21T07:00:24;15.07;;;11.20;;
54983;SDS011;40884;53.562;9.940;2022-09-21T07:01:24;13.37;;;11.33;;
54983;SDS011;40884;53.562;9.940;2022-09-21T07:02:24;12.40;;;10.97;;
54983;SDS011;40884;53.562;9.940;2022-09-21T07:03:24;11.90;;;10.63;;
54983;SDS011;40884;53.562;9.940;2022-09-21T07:04:24;13.23;;;10.90;;
54983;SDS011;40884;53.562;9.940;2022-09-21T07:05:24;11.53;;;10.33;;
54983;SDS011;40884;53.562;9.940;2022-09-21T07:06:24;12.77;;;11.47;;
54983;SDS011;40884;53.562;9.940;2022-09-21T07:07:25;11.77;;;10.10;;
54983;SDS011;40884;53.562;9.940;2022-09-21T07:08:25;15.10;;;10.90;;
54983;SDS011;40884;53.562;9.940;2022-09-21T07:09:25;12.33;;;10.23;;
54983;SDS011;40884;53.562;9.940;2022-09-21T07:10:25;10.93;;;9.57;;
54983;SDS011;40884;53.562;9.940;2022-09-21T07:11:25;12.30;;;10.00;;
54983;SDS011;40884;53.562;9.940;2022-09-21T07:12:28;12.50;;;9.73;;
54983;SDS011;40884;53.562;9.940;2022-09-21T07:13:29;11.70;;;9.10;;
54983;SDS011;40884;53.562;9.940;2022-09-21T07:14:29;10.47;;;9.10;;
54983;SDS011;40884;53.562;9.940;2022-09-21T07:15:29;9.83;;;8.83;;
54983;SDS011;40884;53.562;9.940;2022-09-21T07:16:29;12.57;;;9.70;;
54983;SDS011;40884;53.562;9.940;2022-09-21T07:17:30;10.60;;;8.80;;
54983;SDS011;40884;53.562;9.940;2022-09-21T07:18:30;10.50;;;9.43;;
54983;SDS011;40884;53.562;9.940;2022-09-21T07:19:30;11.90;;;8.80;;
54983;SDS011;40884;53.562;9.940;2022-09-21T07:20:30;9.73;;;8.73;;
54983;SDS011;40884;53.562;9.940;2022-09-21T07:21:31;10.67;;;8.57;;
54983;SDS011;40884;53.562;9.940;2022-09-21T07:22:31;8.93;;;8.00;;
54983;SDS011;40884;53.562;9.940;2022-09-21T07:23:31;10.87;;;8.97;;
54983;SDS011;40884;53.562;9.940;2022-09-21T07:24:31;11.53;;;8.67;;
54983;SDS011;40884;53.562;9.940;2022-09-21T07:25:31;10.90;;;8.10;;
54983;SDS011;40884;53.562;9.940;2022-09-21T07:26:31;9.10;;;8.20;;
54983;SDS011;40884;53.562;9.940;2022-09-21T07:27:32;12.70;;;9.80;;
54983;SDS011;40884;53.562;9.940;2022-09-21T07:28:32;14.17;;;8.67;;
54983;SDS011;40884;53.562;9.940;2022-09-21T07:29:32;13.50;;;9.10;;
54983;SDS011;40884;53.562;9.940;2022-09-21T07:30:33;12.80;;;9.00;;
54983;SDS011;40884;53.562;9.940;2022-09-21T07:31:33;12.60;;;9.60;;
54983;SDS011;40884;53.562;9.940;2022-09-21T07:32:33;14.70;;;8.33;;
54983;SDS011;40884;53.562;9.940;2022-09-21T07:33:33;11.37;;;8.23;;
54983;SDS011;40884;53.562;9.940;2022-09-21T07:34:34;12.03;;;8.67;;
54983;SDS011;40884;53.562;9.940;2022-09-21T07:35:34;10.33;;;8.57;;
54983;SDS011;40884;53.562;9.940;2022-09-21T07:36:35;13.43;;;9.03;;
54983;SDS011;40884;53.562;9.940;2022-09-21T07:37:35;11.87;;;8.23;;
54983;SDS011;40884;53.562;9.940;2022-09-21T07:38:38;13.07;;;7.43;;
54983;SDS011;40884;53.562;9.940;2022-09-21T07:39:39;10.63;;;8.33;;
54983;SDS011;40884;53.562;9.940;2022-09-21T07:40:39;12.03;;;8.40;;
54983;SDS011;40884;53.562;9.940;2022-09-21T07:41:39;14.37;;;8.33;;
54983;SDS011;40884;53.562;9.940;2022-09-21T07:42:39;12.73;;;7.43;;
54983;SDS011;40884;53.562;9.940;2022-09-21T07:43:40;10.63;;;7.43;;
54983;SDS011;40884;53.562;9.940;2022-09-21T07:44:40;10.37;;;7.47;;
54983;SDS011;40884;53.562;9.940;2022-09-21T07:45:40;14.47;;;8.43;;
54983;SDS011;40884;53.562;9.940;2022-09-21T07:46:40;13.47;;;7.63;;
54983;SDS011;40884;53.562;9.940;2022-09-21T07:47:41;12.73;;;7.67;;
54983;SDS011;40884;53.562;9.940;2022-09-21T07:48:41;12.67;;;6.83;;
54983;SDS011;40884;53.562;9.940;2022-09-21T07:49:41;15.33;;;7.63;;
54983;SDS011;40884;53.562;9.940;2022-09-21T07:50:41;18.93;;;7.70;;
54983;SDS011;40884;53.562;9.940;2022-09-21T07:51:41;10.27;;;7.40;;
54983;SDS011;40884;53.562;9.940;2022-09-21T07:52:41;11.47;;;7.33;;
54983;SDS011;40884;53.562;9.940;2022-09-21T07:53:42;14.30;;;7.80;;
54983;SDS011;40884;53.562;9.940;2022-09-21T07:54:42;13.40;;;7.40;;
54983;SDS011;40884;53.562;9.940;2022-09-21T07:55:42;12.13;;;7.13;;
54983;SDS011;40884;53.562;9.940;2022-09-21T07:56:42;8.80;;;6.90;;
54983;SDS011;40884;53.562;9.940;2022-09-21T07:57:43;10.80;;;6.40;;
54983;SDS011;40884;53.562;9.940;2022-09-21T07:58:43;10.50;;;7.10;;
54983;SDS011;40884;53.562;9.940;2022-09-21T07:59:43;12.30;;;6.67;;
54983;SDS011;40884;53.562;9.940;2022-09-21T08:00:44;9.90;;;6.87;;
54983;SDS011;40884;53.562;9.940;2022-09-21T08:01:44;12.37;;;6.73;;
54983;SDS011;40884;53.562;9.940;2022-09-21T08:02:44;9.07;;;6.33;;
54983;SDS011;40884;53.562;9.940;2022-09-21T08:03:44;10.37;;;7.27;;
54983;SDS011;40884;53.562;9.940;2022-09-21T08:04:47;11.43;;;6.07;;
54983;SDS011;40884;53.562;9.940;2022-09-21T08:05:47;10.77;;;6.10;;
54983;SDS011;40884;53.562;9.940;2022-09-21T08:06:47;11.33;;;6.37;;
54983;SDS011;40884;53.562;9.940;2022-09-21T08:07:47;13.43;;;6.20;;
54983;SDS011;40884;53.562;9.940;2022-09-21T08:08:47;13.23;;;6.27;;
54983;SDS011;40884;53.562;9.940;2022-09-21T08:09:48;9.80;;;6.07;;
54983;SDS011;40884;53.562;9.940;2022-09-21T08:10:48;7.97;;;5.57;;
54983;SDS011;40884;53.562;9.940;2022-09-21T08:11:48;12.73;;;6.10;;
54983;SDS011;40884;53.562;9.940;2022-09-21T08:12:48;10.97;;;5.83;;
54983;SDS011;40884;53.562;9.940;2022-09-21T08:13:51;12.33;;;5.47;;
54983;SDS011;40884;53.562;9.940;2022-09-21T08:14:51;7.93;;;5.37;;
54983;SDS011;40884;53.562;9.940;2022-09-21T08:15:58;7.73;;;4.87;;
54983;SDS011;40884;53.562;9.940;2022-09-21T08:16:58;8.43;;;4.60;;
54983;SDS011;40884;53.562;9.940;2022-09-21T08:17:58;9.27;;;4.90;;
54983;SDS011;40884;53.562;9.940;2022-09-21T08:18:58;8.17;;;4.53;;
54983;SDS011;40884;53.562;9.940;2022-09-21T08:19:58;8.37;;;4.00;;
54983;SDS011;40884;53.562;9.940;2022-09-21T08:20:59;8.47;;;4.33;;
54983;SDS011;40884;53.562;9.940;2022-09-21T08:21:59;10.57;;;3.70;;
54983;SDS011;40884;53.562;9.940;2022-09-21T08:22:59;8.27;;;4.30;;
54983;SDS011;40884;53.562;9.940;2022-09-21T08:23:59;5.97;;;3.93;;
54983;SDS011;40884;53.562;9.940;2022-09-21T08:24:59;10.10;;;3.73;;
54983;SDS011;40884;53.562;9.940;2022-09-21T08:26:00;6.33;;;3.80;;
54983;SDS011;40884;53.562;9.940;2022-09-21T08:27:00;8.33;;;3.73;;
54983;SDS011;40884;53.562;9.940;2022-09-21T08:28:00;7.17;;;3.80;;
54983;SDS011;40884;53.562;9.940;2022-09-21T08:29:01;5.37;;;3.77;;
54983;SDS011;40884;53.562;9.940;2022-09-21T08:30:01;6.80;;;3.70;;
54983;SDS011;40884;53.562;9.940;2022-09-21T08:31:03;6.73;;;3.53;;
54983;SDS011;40884;53.562;9.940;2022-09-21T08:32:03;9.80;;;4.33;;
54983;SDS011;40884;53.562;9.940;2022-09-21T08:33:03;6.37;;;4.07;;
54983;SDS011;40884;53.562;9.940;2022-09-21T08:34:03;8.97;;;4.20;;
54983;SDS011;40884;53.562;9.940;2022-09-21T08:35:04;8.10;;;4.27;;
54983;SDS011;40884;53.562;9.940;2022-09-21T08:36:04;8.93;;;5.10;;
54983;SDS011;40884;53.562;9.940;2022-09-21T08:37:04;6.63;;;4.43;;
54983;SDS011;40884;53.562;9.940;2022-09-21T08:38:04;8.90;;;6.00;;
54983;SDS011;40884;53.562;9.940;2022-09-21T08:39:07;7.43;;;4.90;;
54983;SDS011;40884;53.562;9.940;2022-09-21T08:40:08;7.37;;;4.30;;
54983;SDS011;40884;53.562;9.940;2022-09-21T08:41:16;6.33;;;4.10;;
54983;SDS011;40884;53.562;9.940;2022-09-21T08:42:26;7.40;;;4.13;;
54983;SDS011;40884;53.562;9.940;2022-09-21T08:43:31;7.00;;;3.90;;
54983;SDS011;40884;53.562;9.940;2022-09-21T08:44:49;6.43;;;3.80;;
54983;SDS011;40884;53.562;9.940;2022-09-21T08:45:50;7.77;;;3.97;;
54983;SDS011;40884;53.562;9.940;2022-09-21T08:46:56;8.33;;;4.03;;
54983;SDS011;40884;53.562;9.940;2022-09-21T08:47:57;5.67;;;3.40;;
54983;SDS011;40884;53.562;9.940;2022-09-21T08:49:06;7.07;;;4.03;;
54983;SDS011;40884;53.562;9.940;2022-09-21T08:51:28;5.30;;;3.80;;
54983;SDS011;40884;53.562;9.940;2022-09-21T08:52:29;5.57;;;3.33;;
54983;SDS011;40884;53.562;9.940;2022-09-21T08:53:32;6.13;;;3.93;;
54983;SDS011;40884;53.562;9.940;2022-09-21T08:55:33;6.87;;;3.90;;
54983;SDS011;40884;53.562;9.940;2022-09-21T08:56:33;4.57;;;3.10;;
54983;SDS011;40884;53.562;9.940;2022-09-21T08:57:35;8.57;;;4.40;;
54983;SDS011;40884;53.562;9.940;2022-09-21T08:58:35;6.20;;;4.90;;
54983;SDS011;40884;53.562;9.940;2022-09-21T08:59:36;6.50;;;4.03;;
54983;SDS011;40884;53.562;9.940;2022-09-21T09:00:38;5.60;;;3.73;;
54983;SDS011;40884;53.562;9.940;2022-09-21T09:02:02;5.47;;;3.20;;
54983;SDS011;40884;53.562;9.940;2022-09-21T09:03:08;6.50;;;3.03;;
54983;SDS011;40884;53.562;9.940;2022-09-21T09:04:29;7.03;;;2.80;;
54983;SDS011;40884;53.562;9.940;2022-09-21T09:07:01;4.80;;;2.70;;
54983;SDS011;40884;53.562;9.940;2022-09-21T09:08:17;4.03;;;2.30;;
54983;SDS011;40884;53.562;9.940;2022-09-21T09:09:30;3.33;;;2.33;;
54983;SDS011;40884;53.562;9.940;2022-09-21T09:10:35;3.27;;;1.70;;
54983;SDS011;40884;53.562;9.940;2022-09-21T09:11:41;4.87;;;2.07;;
54983;SDS011;40884;53.562;9.940;2022-09-21T09:16:19;3.00;;;1.57;;
54983;SDS011;40884;53.562;9.940;2022-09-21T09:18:00;3.20;;;1.80;;
54983;SDS011;40884;53.562;9.940;2022-09-21T09:19:26;3.20;;;1.90;;
54983;SDS011;40884;53.562;9.940;2022-09-21T09:20:30;3.70;;;1.83;;
54983;SDS011;40884;53.562;9.940;2022-09-21T09:21:33;4.23;;;2.00;;
54983;SDS011;40884;53.562;9.940;2022-09-21T09:22:36;3.57;;;1.60;;
54983;SDS011;40884;53.562;9.940;2022-09-21T09:23:45;3.87;;;1.30;;
54983;SDS011;40884;53.562;9.940;2022-09-21T09:24:51;2.70;;;1.50;;
54983;SDS011;40884;53.562;9.940;2022-09-21T09:25:53;4.67;;;1.53;;
54983;SDS011;40884;53.562;9.940;2022-09-21T09:26:59;1.90;;;1.10;;
54983;SDS011;40884;53.562;9.940;2022-09-21T09:28:04;3.73;;;1.83;;
54983;SDS011;40884;53.562;9.940;2022-09-21T09:29:11;4.17;;;2.63;;
54983;SDS011;40884;53.562;9.940;2022-09-21T09:30:16;9.50;;;7.47;;
54983;SDS011;40884;53.562;9.940;2022-09-21T09:31:18;9.77;;;8.73;;
54983;SDS011;40884;53.562;9.940;2022-09-21T09:32:20;10.93;;;6.47;;
54983;SDS011;40884;53.562;9.940;2022-09-21T09:33:24;9.93;;;8.40;;
54983;SDS011;40884;53.562;9.940;2022-09-21T09:34:31;17.73;;;13.57;;
54983;SDS011;40884;53.562;9.940;2022-09-21T09:35:36;5.07;;;4.17;;
54983;SDS011;40884;53.562;9.940;2022-09-21T09:36:38;4.30;;;2.47;;
54983;SDS011;40884;53.562;9.940;2022-09-21T09:37:39;5.53;;;3.97;;
54983;SDS011;40884;53.562;9.940;2022-09-21T09:38:43;5.53;;;4.10;;
54983;SDS011;40884;53.562;9.940;2022-09-21T09:39:45;4.87;;;2.70;;
54983;SDS011;40884;53.562;9.940;2022-09-21T09:40:50;8.27;;;4.67;;
54983;SDS011;40884;53.562;9.940;2022-09-21T09:41:59;4.73;;;4.07;;
54983;SDS011;40884;53.562;9.940;2022-09-21T09:43:03;2.97;;;2.07;;
54983;SDS011;40884;53.562;9.940;2022-09-21T09:45:42;4.20;;;2.07;;
54983;SDS011;40884;53.562;9.940;2022-09-21T09:46:52;3.70;;;1.53;;
54983;SDS011;40884;53.562;9.940;2022-09-21T09:48:05;1.50;;;1.20;;
54983;SDS011;40884;53.562;9.940;2022-09-21T09:50:29;2.63;;;1.00;;
54983;SDS011;40884;53.562;9.940;2022-09-21T09:51:31;3.43;;;1.43;;
54983;SDS011;40884;53.562;9.940;2022-09-21T09:52:31;3.83;;;1.77;;
54983;SDS011;40884;53.562;9.940;2022-09-21T09:53:31;2.87;;;1.60;;
54983;SDS011;40884;53.562;9.940;2022-09-21T09:54:32;1.90;;;1.30;;
54983;SDS011;40884;53.562;9.940;2022-09-21T09:55:34;3.33;;;1.70;;
54983;SDS011;40884;53.562;9.940;2022-09-21T09:56:35;4.60;;;1.50;;
54983;SDS011;40884;53.562;9.940;2022-09-21T09:57:35;2.80;;;1.50;;
54983;SDS011;40884;53.562;9.940;2022-09-21T09:58:37;3.90;;;1.70;;
54983;SDS011;40884;53.562;9.940;2022-09-21T09:59:45;3.63;;;1.50;;
54983;SDS011;40884;53.562;9.940;2022-09-21T10:00:49;2.80;;;1.20;;
54983;SDS011;40884;53.562;9.940;2022-09-21T10:01:57;2.43;;;1.20;;
54983;SDS011;40884;53.562;9.940;2022-09-21T10:02:58;2.73;;;1.60;;
54983;SDS011;40884;53.562;9.940;2022-09-21T10:04:07;2.97;;;1.00;;
54983;SDS011;40884;53.562;9.940;2022-09-21T10:05:11;4.60;;;1.50;;
54983;SDS011;40884;53.562;9.940;2022-09-21T10:06:23;4.37;;;1.47;;
54983;SDS011;40884;53.562;9.940;2022-09-21T10:07:36;4.13;;;1.47;;
54983;SDS011;40884;53.562;9.940;2022-09-21T10:09:37;3.63;;;1.50;;
54983;SDS011;40884;53.562;9.940;2022-09-21T10:10:40;3.67;;;1.53;;
54983;SDS011;40884;53.562;9.940;2022-09-21T10:11:40;5.70;;;2.10;;
54983;SDS011;40884;53.562;9.940;2022-09-21T10:12:40;3.33;;;1.73;;
54983;SDS011;40884;53.562;9.940;2022-09-21T10:13:45;3.50;;;1.53;;
54983;SDS011;40884;53.562;9.940;2022-09-21T10:14:47;4.17;;;1.90;;
54983;SDS011;40884;53.562;9.940;2022-09-21T10:15:48;2.93;;;1.83;;
54983;SDS011;40884;53.562;9.940;2022-09-21T10:16:49;3.87;;;1.83;;
54983;SDS011;40884;53.562;9.940;2022-09-21T10:17:57;4.33;;;2.20;;
54983;SDS011;40884;53.562;9.940;2022-09-21T10:18:59;3.83;;;1.90;;
54983;SDS011;40884;53.562;9.940;2022-09-21T10:20:00;4.00;;;2.47;;
54983;SDS011;40884;53.562;9.940;2022-09-21T10:21:02;4.83;;;2.07;;
54983;SDS011;40884;53.562;9.940;2022-09-21T10:22:03;3.93;;;1.53;;
54983;SDS011;40884;53.562;9.940;2022-09-21T10:23:04;4.10;;;1.60;;
54983;SDS011;40884;53.562;9.940;2022-09-21T10:24:05;2.67;;;1.50;;
54983;SDS011;40884;53.562;9.940;2022-09-21T10:25:13;3.17;;;1.60;;
54983;SDS011;40884;53.562;9.940;2022-09-21T10:26:14;4.17;;;1.67;;
54983;SDS011;40884;53.562;9.940;2022-09-21T10:27:16;3.30;;;1.63;;
54983;SDS011;40884;53.562;9.940;2022-09-21T10:28:16;2.43;;;1.50;;
54983;SDS011;40884;53.562;9.940;2022-09-21T10:29:18;2.97;;;1.80;;
54983;SDS011;40884;53.562;9.940;2022-09-21T10:30:30;4.97;;;1.80;;
54983;SDS011;40884;53.562;9.940;2022-09-21T10:31:30;3.17;;;1.53;;
54983;SDS011;40884;53.562;9.940;2022-09-21T10:32:31;5.70;;;1.70;;
54983;SDS011;40884;53.562;9.940;2022-09-21T10:33:31;3.43;;;1.30;;
54983;SDS011;40884;53.562;9.940;2022-09-21T10:34:32;2.07;;;1.30;;
54983;SDS011;40884;53.562;9.940;2022-09-21T10:35:32;3.20;;;1.73;;
54983;SDS011;40884;53.562;9.940;2022-09-21T10:36:51;2.60;;;1.40;;
54983;SDS011;40884;53.562;9.940;2022-09-21T10:38:10;2.90;;;1.00;;
54983;SDS011;40884;53.562;9.940;2022-09-21T10:39:14;4.37;;;1.40;;
54983;SDS011;40884;53.562;9.940;2022-09-21T10:41:16;3.93;;;1.43;;
54983;SDS011;40884;53.562;9.940;2022-09-21T10:42:17;3.33;;;1.27;;
54983;SDS011;40884;53.562;9.940;2022-09-21T10:43:24;3.60;;;1.40;;
54983;SDS011;40884;53.562;9.940;2022-09-21T10:44:32;2.20;;;1.27;;
54983;SDS011;40884;53.562;9.940;2022-09-21T10:45:33;3.23;;;1.27;;
54983;SDS011;40884;53.562;9.940;2022-09-21T10:46:34;2.83;;;1.10;;
54983;SDS011;40884;53.562;9.940;2022-09-21T10:47:35;3.60;;;1.50;;
54983;SDS011;40884;53.562;9.940;2022-09-21T10:48:36;3.07;;;1.37;;
54983;SDS011;40884;53.562;9.940;2022-09-21T10:49:36;4.30;;;1.20;;
54983;SDS011;40884;53.562;9.940;2022-09-21T10:50:41;2.40;;;1.13;;
54983;SDS011;40884;53.562;9.940;2022-09-21T10:51:43;2.37;;;1.03;;
54983;SDS011;40884;53.562;9.940;2022-09-21T10:52:43;4.13;;;1.33;;
54983;SDS011;40884;53.562;9.940;2022-09-21T10:53:46;3.53;;;1.70;;
54983;SDS011;40884;53.562;9.940;2022-09-21T10:54:47;4.90;;;1.50;;
54983;SDS011;40884;53.562;9.940;2022-09-21T10:55:51;3.47;;;1.47;;
54983;SDS011;40884;53.562;9.940;2022-09-21T10:56:53;4.80;;;1.60;;
54983;SDS011;40884;53.562;9.940;2022-09-21T10:57:53;3.00;;;1.60;;
54983;SDS011;40884;53.562;9.940;2022-09-21T10:59:19;2.87;;;1.60;;
54983;SDS011;40884;53.562;9.940;2022-09-21T11:01:21;4.03;;;1.50;;
54983;SDS011;40884;53.562;9.940;2022-09-21T11:03:39;2.70;;;1.20;;
54983;SDS011;40884;53.562;9.940;2022-09-21T11:04:45;3.63;;;1.07;;
54983;SDS011;40884;53.562;9.940;2022-09-21T11:05:47;3.10;;;1.27;;
54983;SDS011;40884;53.562;9.940;2022-09-21T11:06:51;2.97;;;1.50;;
54983;SDS011;40884;53.562;9.940;2022-09-21T11:08:03;3.67;;;1.50;;
54983;SDS011;40884;53.562;9.940;2022-09-21T11:12:45;2.60;;;1.40;;
54983;SDS011;40884;53.562;9.940;2022-09-21T11:15:58;3.30;;;1.63;;
54983;SDS011;40884;53.562;9.940;2022-09-21T11:17:21;2.90;;;1.27;;
54983;SDS011;40884;53.562;9.940;2022-09-21T11:19:40;3.27;;;1.43;;
54983;SDS011;40884;53.562;9.940;2022-09-21T11:22:04;3.10;;;1.10;;
54983;SDS011;40884;53.562;9.940;2022-09-21T11:23:12;2.23;;;1.10;;
54983;SDS011;40884;53.562;9.940;2022-09-21T11:24:27;1.50;;;0.90;;
54983;SDS011;40884;53.562;9.940;2022-09-21T11:25:41;2.33;;;1.10;;
54983;SDS011;40884;53.562;9.940;2022-09-21T11:26:43;4.07;;;1.60;;
54983;SDS011;40884;53.562;9.940;2022-09-21T11:27:45;2.73;;;1.10;;
54983;SDS011;40884;53.562;9.940;2022-09-21T11:30:12;2.13;;;1.10;;
54983;SDS011;40884;53.562;9.940;2022-09-21T11:32:42;2.27;;;1.10;;
54983;SDS011;40884;53.562;9.940;2022-09-21T11:33:49;1.87;;;1.20;;
54983;SDS011;40884;53.562;9.940;2022-09-21T11:34:55;1.70;;;1.10;;
54983;SDS011;40884;53.562;9.940;2022-09-21T11:36:09;2.17;;;1.00;;
54983;SDS011;40884;53.562;9.940;2022-09-21T11:37:20;3.63;;;1.33;;
54983;SDS011;40884;53.562;9.940;2022-09-21T11:41:24;1.97;;;1.10;;
54983;SDS011;40884;53.562;9.940;2022-09-21T11:44:54;4.00;;;1.00;;
54983;SDS011;40884;53.562;9.940;2022-09-21T11:46:02;1.57;;;1.10;;
54983;SDS011;40884;53.562;9.940;2022-09-21T11:48:20;2.27;;;1.30;;
54983;SDS011;40884;53.562;9.940;2022-09-21T11:49:32;2.70;;;1.20;;
54983;SDS011;40884;53.562;9.940;2022-09-21T11:51:56;2.60;;;1.20;;
54983;SDS011;40884;53.562;9.940;2022-09-21T11:53:16;1.73;;;0.90;;
54983;SDS011;40884;53.562;9.940;2022-09-21T11:55:37;1.57;;;1.00;;
54983;SDS011;40884;53.562;9.940;2022-09-21T11:58:01;1.77;;;1.10;;
54983;SDS011;40884;53.562;9.940;2022-09-21T11:59:14;2.70;;;1.20;;
54983;SDS011;40884;53.562;9.940;2022-09-21T12:00:16;1.17;;;0.73;;
54983;SDS011;40884;53.562;9.940;2022-09-21T12:01:29;1.93;;;1.00;;
54983;SDS011;40884;53.562;9.940;2022-09-21T12:03:46;1.27;;;0.83;;
54983;SDS011;40884;53.562;9.940;2022-09-21T12:04:48;2.77;;;1.07;;
54983;SDS011;40884;53.562;9.940;2022-09-21T12:06:02;2.13;;;0.90;;
54983;SDS011;40884;53.562;9.940;2022-09-21T12:09:26;2.80;;;1.07;;
54983;SDS011;40884;53.562;9.940;2022-09-21T12:11:35;3.40;;;1.03;;
54983;SDS011;40884;53.562;9.940;2022-09-21T12:12:39;1.40;;;0.93;;
54983;SDS011;40884;53.562;9.940;2022-09-21T12:13:43;1.97;;;1.30;;
54983;SDS011;40884;53.562;9.940;2022-09-21T12:17:21;3.13;;;1.00;;
54983;SDS011;40884;53.562;9.940;2022-09-21T12:18:31;2.27;;;1.20;;
54983;SDS011;40884;53.562;9.940;2022-09-21T12:19:36;3.37;;;1.30;;
54983;SDS011;40884;53.562;9.940;2022-09-21T12:20:44;2.10;;;1.40;;
54983;SDS011;40884;53.562;9.940;2022-09-21T12:21:52;3.43;;;1.53;;
54983;SDS011;40884;53.562;9.940;2022-09-21T12:22:56;2.27;;;1.30;;
54983;SDS011;40884;53.562;9.940;2022-09-21T12:24:00;3.30;;;1.70;;
54983;SDS011;40884;53.562;9.940;2022-09-21T12:25:11;2.57;;;1.70;;
54983;SDS011;40884;53.562;9.940;2022-09-21T12:26:16;2.87;;;1.60;;
54983;SDS011;40884;53.562;9.940;2022-09-21T12:27:22;2.50;;;1.50;;
54983;SDS011;40884;53.562;9.940;2022-09-21T12:28:28;3.27;;;1.53;;
54983;SDS011;40884;53.562;9.940;2022-09-21T12:29:39;3.00;;;1.47;;
54983;SDS011;40884;53.562;9.940;2022-09-21T12:30:41;2.87;;;1.50;;
54983;SDS011;40884;53.562;9.940;2022-09-21T12:33:13;2.43;;;1.53;;
54983;SDS011;40884;53.562;9.940;2022-09-21T12:34:17;2.33;;;1.40;;
54983;SDS011;40884;53.562;9.940;2022-09-21T12:35:23;2.67;;;1.30;;
54983;SDS011;40884;53.562;9.940;2022-09-21T12:36:34;2.63;;;1.43;;
54983;SDS011;40884;53.562;9.940;2022-09-21T12:37:39;2.83;;;1.60;;
54983;SDS011;40884;53.562;9.940;2022-09-21T12:38:42;3.47;;;1.50;;
54983;SDS011;40884;53.562;9.940;2022-09-21T12:39:49;2.63;;;1.57;;
54983;SDS011;40884;53.562;9.940;2022-09-21T12:40:52;3.27;;;1.90;;
54983;SDS011;40884;53.562;9.940;2022-09-21T12:41:58;1.60;;;1.50;;
54983;SDS011;40884;53.562;9.940;2022-09-21T12:43:04;1.83;;;1.40;;
54983;SDS011;40884;53.562;9.940;2022-09-21T12:44:21;3.67;;;1.67;;
54983;SDS011;40884;53.562;9.940;2022-09-21T12:45:24;2.10;;;1.23;;